Latest Weather Observations for Bradshaw

IDD60801

Issued at 12:01 pm CST Saturday 13 February 2016 (issued every 30 minutes, with the page automatically refreshed every 10 minutes)

About weather observations | Map of weather stations | Latest weather observations for NT | Other Formats
Station Details ID: 014954 Name: BRADSHAW Lat: -14.94 Lon: 130.81 Height: 75.0 m
Data from the previous 72 hours. | See also: Recent months at Bradshaw
Date/Time
CST
Temp
°C
App
Temp
°C
Dew
Point
Rel
Hum
%
Delta-T
°C
Wind Press
QNH
hPa
Press
MSL
hPa
Rain
since 9 am
mm
Dir
 
Spd
km/h
Gust
km/h
Spd
kts
Gust
kts
13/12:00pm 36.6 38.8 19.5 36 11.4 NW 7 15 4 8 1009.3 1008.7 0.0
13/11:30am 35.8 38.6 20.9 42 10.1 N 7 13 4 7 1009.9 - 0.0
13/11:00am 35.4 38.2 20.9 42 9.8 WNW 7 13 4 7 1010.2 - 0.0
13/10:30am 34.1 38.1 23.1 52 7.6 W 7 11 4 6 1010.7 - 0.0
13/10:00am 33.7 37.5 23.4 55 7.2 SW 9 13 5 7 1011.0 - 0.0
13/09:30am 32.8 37.2 23.4 57 6.5 SW 6 13 3 7 1011.3 - 0.0
13/09:00am 32.1 36.0 23.6 60 5.9 WSW 9 13 5 7 1011.2 1010.6 0.0
13/08:30am 31.1 35.6 23.7 64 5.1 SW 6 9 3 5 1010.8 - 0.0
13/08:00am 29.9 35.9 24.3 72 3.9 CALM 0 0 0 0 1010.5 - 0.0
13/07:30am 28.6 34.7 24.4 78 2.9 CALM 0 7 0 4 1010.1 - 0.0
13/07:00am 27.6 32.2 24.2 82 2.4 NW 7 9 4 5 1009.6 - 0.0
13/06:30am 27.8 31.6 24.0 80 2.6 NNW 11 15 6 8 1009.1 - 0.0
13/06:00am 27.9 32.1 24.1 80 2.6 N 9 11 5 6 1009.1 1008.5 0.0
13/05:30am 27.6 31.9 24.2 82 2.4 NNW 9 11 5 6 1008.9 - 0.0
13/05:00am 27.3 33.4 24.4 84 2.0 CALM 0 0 0 0 1008.5 - 0.0
13/04:30am 28.2 34.3 24.4 80 2.6 CALM 0 0 0 0 1008.3 - 0.0
13/04:00am 28.1 34.0 24.1 79 2.8 CALM 0 0 0 0 1008.3 - 0.0
13/03:30am 28.0 33.2 24.2 80 2.6 N 4 11 2 6 1008.1 - 0.0
13/03:00am 28.5 34.5 24.3 78 2.9 CALM 0 0 0 0 1008.2 1007.6 0.0
13/02:30am 28.4 33.8 23.8 76 3.2 NNE 2 9 1 5 1008.3 - 0.0
13/02:00am 28.7 34.4 23.8 75 3.4 CALM 0 0 0 0 1008.4 - 0.0
13/01:30am 29.1 35.1 24.2 75 3.4 CALM 0 0 0 0 1008.8 - 0.0
13/01:00am 29.3 35.1 24.0 73 3.7 CALM 0 0 0 0 1008.8 - 0.0
13/12:30am 29.7 35.3 23.6 69 4.2 CALM 0 0 0 0 1009.1 - 0.0
13/12:00am 30.4 35.8 23.3 66 4.9 CALM 0 0 0 0 1009.3 1008.7 0.0
 
Date/Time
CST
Temp
°C
App
Temp
°C
Dew
Point
Rel
Hum
%
Delta-T
°C
Wind Press
QNH
hPa
Press
MSL
hPa
Rain
since 9 am
mm
Dir
 
Spd
km/h
Gust
km/h
Spd
kts
Gust
kts
12/11:30pm 30.9 34.9 22.8 62 5.6 NNE 6 9 3 5 1009.4 - 0.0
12/11:00pm 31.5 36.7 22.8 60 6.0 CALM 0 0 0 0 1009.3 - 0.0
12/10:30pm 31.4 37.0 23.5 63 5.5 CALM 0 0 0 0 1009.3 - 0.0
12/10:00pm 32.0 36.0 22.7 58 6.4 NNW 6 7 3 4 1009.0 - 0.0
12/09:30pm 33.0 36.6 22.1 52 7.5 NE 6 9 3 5 1008.9 - 0.0
12/09:00pm 32.2 37.5 23.7 61 5.9 N 2 6 1 3 1008.6 1008.0 0.0
12/08:30pm 32.7 38.0 23.1 57 6.6 CALM 0 0 0 0 1008.1 - 0.0
12/08:00pm 34.1 38.4 21.9 49 8.3 NE 2 7 1 4 1007.5 - 0.0
12/07:30pm 34.6 37.8 21.6 46 8.9 E 7 9 4 5 1007.2 - 0.0
12/07:00pm 35.4 37.3 20.5 41 10.0 E 11 17 6 9 1006.7 - 0.0
12/06:30pm 36.6 36.9 19.5 36 11.4 ENE 17 26 9 14 1006.5 - 0.0
12/06:00pm 37.0 37.4 19.9 36 11.5 ENE 17 20 9 11 1006.2 1005.7 0.0
12/05:30pm 37.4 37.2 19.3 34 12.1 ENE 19 30 10 16 1006.2 - 0.0
12/05:00pm 37.7 36.6 18.7 33 12.6 ENE 22 32 12 17 1005.8 - 0.0
12/04:30pm 38.4 38.0 19.3 33 12.8 E 20 28 11 15 1005.5 - 0.0
12/04:00pm 38.5 38.1 18.9 32 13.0 E 19 28 10 15 1005.7 - 0.0
12/03:30pm 38.4 37.8 18.8 32 13.0 ESE 20 28 11 15 1006.0 - 0.0
12/03:00pm 37.8 36.9 18.3 32 12.9 ENE 20 35 11 19 1006.3 1005.8 0.0
12/02:30pm 38.0 37.4 18.4 31 12.9 E 19 28 10 15 1006.9 - 0.0
12/02:00pm 38.2 37.3 19.1 32 12.7 ENE 22 30 12 16 1007.0 - 0.0
12/01:30pm 37.4 38.2 19.8 35 11.8 ESE 15 26 8 14 1007.6 - 0.0
12/01:00pm 37.1 39.6 22.4 42 10.2 ENE 13 20 7 11 1008.0 - 0.0
12/12:30pm 36.0 39.1 22.9 46 9.1 E 11 19 6 10 1008.7 - 0.0
12/12:00pm 36.6 39.9 23.8 47 9.0 ESE 13 20 7 11 1009.1 1008.5 0.0
12/11:30am 35.7 38.7 23.3 48 8.7 NNE 13 19 7 10 1009.3 - 0.0
12/11:00am 34.3 39.5 24.2 55 7.1 N 4 9 2 5 1009.7 - 0.0
12/10:30am 33.0 36.7 23.9 59 6.4 N 11 15 6 8 1010.0 - 0.0
12/10:00am 31.8 35.2 23.3 60 5.9 NNE 11 19 6 10 1010.2 - 0.0
12/09:30am 31.7 35.0 23.8 63 5.5 N 13 20 7 11 1010.3 - 0.0
12/09:00am 31.2 34.2 23.3 63 5.5 NE 13 19 7 10 1010.2 1009.6 0.0
12/08:30am 30.2 34.4 23.4 67 4.7 N 7 11 4 6 1010.0 - 0.0
12/08:00am 29.7 33.7 22.7 66 4.8 N 6 7 3 4 1009.9 - 0.0
12/07:30am 29.2 33.7 22.9 69 4.3 N 4 6 2 3 1009.7 - 0.0
12/07:00am 27.9 32.1 23.5 77 3.0 N 7 7 4 4 1009.4 - 0.0
12/06:30am 27.6 33.4 24.0 81 2.5 CALM 0 6 0 3 1009.1 - 0.0
12/06:00am 27.7 33.3 23.5 78 2.9 CALM 0 0 0 0 1008.6 1008.0 0.0
12/05:30am 27.8 31.7 23.6 78 2.9 NNW 9 11 5 6 1008.3 - 0.0
12/05:00am 28.2 34.0 24.0 78 2.9 CALM 0 0 0 0 1008.1 - 0.0
12/04:30am 28.8 34.2 23.2 71 3.8 CALM 0 0 0 0 1007.9 - 0.0
12/04:00am 28.9 34.5 23.6 73 3.7 CALM 0 0 0 0 1007.9 - 0.0
12/03:30am 29.1 34.5 23.3 71 4.0 CALM 0 0 0 0 1007.9 - 0.0
12/03:00am 29.2 34.3 22.7 68 4.4 CALM 0 0 0 0 1007.8 1007.2 0.0
12/02:30am 29.5 34.2 22.0 64 5.1 CALM 0 0 0 0 1007.8 - 0.0
12/02:00am 29.5 34.1 21.7 63 5.3 CALM 0 0 0 0 1007.9 - 0.0
12/01:30am 29.5 32.7 21.7 63 5.3 NNW 7 9 4 5 1008.0 - 0.0
12/01:00am 29.8 32.3 21.7 61 5.5 N 11 15 6 8 1008.2 - 0.0
12/12:30am 29.5 31.8 22.0 64 5.1 NNW 13 19 7 10 1008.4 - 0.0
12/12:00am 30.0 32.6 21.9 62 5.5 NNW 11 17 6 9 1008.8 1008.2 0.0
 
Date/Time
CST
Temp
°C
App
Temp
°C
Dew
Point
Rel
Hum
%
Delta-T
°C
Wind Press
QNH
hPa
Press
MSL
hPa
Rain
since 9 am
mm
Dir
 
Spd
km/h
Gust
km/h
Spd
kts
Gust
kts
11/11:30pm 29.7 34.2 22.2 64 5.1 N 2 6 1 3 1009.0 - 0.0
11/11:00pm 29.7 33.2 22.2 64 5.1 N 7 11 4 6 1009.1 - 0.0
11/10:30pm 30.3 32.9 21.9 60 5.7 ESE 11 19 6 10 1008.9 - 0.0
11/10:00pm 30.4 33.2 21.5 59 6.0 N 9 13 5 7 1008.3 - 0.0
11/09:30pm 30.9 33.6 21.4 57 6.4 NE 9 13 5 7 1008.1 - 0.0
11/09:00pm 31.4 34.6 21.3 55 6.8 NW 6 9 3 5 1007.6 1007.0 0.0
11/08:30pm 32.2 34.1 20.5 50 7.8 ENE 11 17 6 9 1007.3 - 0.0
11/08:00pm 33.6 35.4 20.4 46 8.8 ENE 11 17 6 9 1006.7 - 0.0
11/07:30pm 34.2 34.8 19.4 41 9.8 E 15 22 8 12 1006.1 - 0.0
11/07:00pm 35.2 36.8 19.9 40 10.2 E 11 15 6 8 1005.4 - 0.0
11/06:30pm 35.9 36.9 20.2 40 10.5 E 15 20 8 11 1004.9 - 0.0
11/06:00pm 35.8 35.6 19.7 39 10.8 E 20 30 11 16 1004.7 1004.2 0.0
11/05:30pm 36.1 32.7 17.7 33 12.0 E 32 44 17 24 1003.5 - 0.0
11/05:25pm 37.4 34.1 17.9 31 12.8 ESE 32 41 17 22 1003.3 - 0.0
11/05:00pm 38.6 38.5 17.9 29 13.6 SSE 15 22 8 12 1003.3 - 0.0
11/04:30pm 38.8 38.9 17.5 28 13.9 S 13 24 7 13 1003.5 - 0.0
11/04:00pm 39.1 38.2 17.8 28 14.0 S 19 28 10 15 1003.6 - 0.0
11/03:30pm 39.3 39.0 19.5 31 13.3 S 20 26 11 14 1004.0 - 0.0
11/03:00pm 38.2 39.0 19.1 32 12.8 S 13 19 7 10 1004.4 1003.9 0.0
11/02:30pm 38.2 39.7 20.5 35 12.0 E 13 24 7 13 1004.7 - 0.0
11/02:00pm 37.9 39.7 21.1 37 11.5 SSE 13 19 7 10 1005.3 - 0.0
11/01:30pm 37.7 39.8 20.1 36 11.9 SE 9 15 5 8 1005.8 - 0.0
11/01:00pm 37.3 38.6 20.1 36 11.6 SE 13 19 7 10 1006.1 - 0.0
11/12:30pm 36.7 38.8 21.7 42 10.3 S 13 17 7 9 1006.5 - 0.0
11/12:00pm 35.9 40.1 23.2 48 8.9 NW 6 11 3 6 1006.9 1006.3 0.0
11/11:30am 35.3 38.5 22.3 47 9.0 W 9 13 5 7 1007.4 - 0.0
11/11:00am 34.4 38.0 24.3 55 7.1 WSW 13 17 7 9 1007.9 - 0.0
11/10:30am 33.4 38.4 24.8 60 6.1 NNW 7 13 4 7 1008.3 - 0.0
11/10:00am 32.0 37.0 24.8 65 5.1 NW 7 11 4 6 1008.6 - 0.0
11/09:30am 31.3 36.2 24.7 68 4.6 NW 7 13 4 7 1008.8 - 0.0
11/09:00am 29.9 34.3 23.8 70 4.2 NNW 7 11 4 6 1008.9 1008.3 0.2
11/08:30am 29.8 35.1 23.7 70 4.2 N 2 6 1 3 1008.9 - 0.2
11/08:00am 29.0 34.1 23.4 72 3.9 ENE 2 6 1 3 1008.9 - 0.2
11/07:30am 27.5 33.1 23.5 79 2.7 CALM 0 0 0 0 1008.6 - 0.2
11/07:00am 26.5 30.8 23.6 84 2.0 NE 7 11 4 6 1008.4 - 0.2
11/06:30am 26.4 31.7 23.7 85 1.9 N 2 7 1 4 1008.2 - 0.2
11/06:00am 26.6 32.3 23.7 84 2.0 CALM 0 0 0 0 1008.0 1007.4 0.2
11/05:30am 26.6 32.2 23.5 83 2.1 CALM 0 0 0 0 1007.7 - 0.2
11/05:00am 26.8 31.1 23.3 81 2.4 N 6 9 3 5 1007.7 - 0.2
11/04:30am 26.9 31.1 23.2 80 2.5 NNE 6 7 3 4 1007.6 - 0.2
11/04:00am 27.1 31.1 23.1 79 2.7 N 7 11 4 6 1007.6 - 0.2
11/03:30am 27.4 31.4 22.8 76 3.1 NNE 6 9 3 5 1007.6 - 0.2
11/03:00am 27.5 31.0 22.9 76 3.1 NNE 9 13 5 7 1007.6 1007.0 0.2
11/02:30am 27.6 32.1 23.6 79 2.8 NNE 6 9 3 5 1007.6 - 0.2
11/02:00am 27.8 32.8 23.8 79 2.8 N 4 9 2 5 1007.7 - 0.2
11/01:30am 28.0 32.4 23.8 78 2.9 NNE 7 13 4 7 1007.9 - 0.2
11/01:00am 28.5 33.0 23.6 75 3.4 NNW 6 9 3 5 1008.1 - 0.2
11/12:30am 28.8 32.4 23.7 74 3.5 N 11 17 6 9 1008.0 - 0.2
11/12:00am 29.4 32.5 23.6 71 4.0 NNE 13 17 7 9 1008.1 1007.5 0.2
 
Date/Time
CST
Temp
°C
App
Temp
°C
Dew
Point
Rel
Hum
%
Delta-T
°C
Wind Press
QNH
hPa
Press
MSL
hPa
Rain
since 9 am
mm
Dir
 
Spd
km/h
Gust
km/h
Spd
kts
Gust
kts
10/11:30pm 29.3 32.5 22.3 66 4.8 NE 9 15 5 8 1008.2 - 0.2
10/11:00pm 29.6 32.3 21.3 61 5.6 NNW 9 15 5 8 1007.8 - 0.2
10/10:30pm 29.9 34.0 22.3 63 5.2 NW 4 7 2 4 1007.6 - 0.2
10/10:00pm 29.8 33.7 22.5 65 5.0 W 6 11 3 6 1007.5 - 0.2
10/09:30pm 30.2 33.7 22.1 62 5.5 NNE 7 13 4 7 1007.2 - 0.2
10/09:00pm 30.3 32.1 21.9 60 5.7 N 15 22 8 12 1007.0 1006.4 0.2
10/08:30pm 30.5 33.3 21.6 59 6.0 NNW 9 15 5 8 1006.1 - 0.2
10/08:00pm 31.1 33.2 21.0 55 6.8 N 11 20 6 11 1005.5 - 0.2
10/07:30pm 31.0 35.3 22.0 58 6.1 W 2 9 1 5 1004.9 - 0.2
10/07:00pm 30.2 33.2 22.6 63 5.2 NW 11 15 6 8 1005.2 - 0.2
10/06:30pm 29.5 34.0 23.7 71 4.0 NW 6 9 3 5 1005.1 - 0.2
10/06:00pm 29.0 31.8 23.0 70 4.1 SE 13 24 7 13 1005.2 1004.7 0.2
10/05:36pm 27.2 26.9 22.6 76 3.1 ESE 28 65 15 35 1004.3 - 0.0
10/05:30pm 29.9 26.8 20.5 57 6.2 S 37 65 20 35 1004.3 - 0.0
10/05:26pm 31.7 30.2 20.9 52 7.2 S 30 50 16 27 1004.3 - 0.0
10/05:00pm 36.4 37.8 21.8 42 10.0 WNW 17 24 9 13 1003.5 - 0.0
10/04:30pm 37.7 39.4 20.9 37 11.4 W 13 17 7 9 1003.2 - 0.0
10/04:00pm 38.8 40.1 20.1 33 12.6 SW 13 19 7 10 1003.3 - 0.0
10/03:30pm 38.3 39.9 21.5 38 11.5 W 15 24 8 13 1003.6 - 0.0
10/03:00pm 39.0 40.7 21.6 36 12.0 WNW 15 32 8 17 1004.4 1003.9 0.0
10/02:30pm 38.0 39.0 20.3 35 12.0 SW 15 20 8 11 1004.9 - 0.0
10/02:00pm 38.1 39.5 19.5 33 12.5 WSW 11 24 6 13 1005.4 - 0.0
10/01:30pm 37.9 41.4 22.8 42 10.5 W 9 15 5 8 1006.0 - 0.0
10/01:00pm 37.0 40.8 23.4 45 9.5 WNW 9 20 5 11 1006.4 - 0.0
10/12:30pm 36.0 40.1 23.9 49 8.5 WSW 9 17 5 9 1006.9 - 0.0

Other Formats:

Comma delimited format used in spreadsheet applications
http://www.bom.gov.au/fwo/IDD60801/IDD60801.94130.axf

JavaScript Object Notation format (JSON) in row-major order
http://www.bom.gov.au/fwo/IDD60801/IDD60801.94130.json